sensor_id;sensor_type;location;lat;lon;timestamp;pressure;altitude;pressure_sealevel;temperature;humidity
20003;BME280;10162;41.600;23.806;2023-06-22T00:00:17;95517.56;;;17.45;100.00
20003;BME280;10162;41.600;23.806;2023-06-22T00:06:38;95514.22;;;17.38;100.00
20003;BME280;10162;41.600;23.806;2023-06-22T00:09:05;95521.25;;;17.44;100.00
20003;BME280;10162;41.600;23.806;2023-06-22T00:15:26;95526.00;;;17.54;100.00
20003;BME280;10162;41.600;23.806;2023-06-22T00:17:52;95496.84;;;17.19;100.00
20003;BME280;10162;41.600;23.806;2023-06-22T00:20:18;95520.56;;;17.37;100.00
20003;BME280;10162;41.600;23.806;2023-06-22T00:26:37;95539.28;;;16.76;100.00
20003;BME280;10162;41.600;23.806;2023-06-22T00:29:05;95546.94;;;17.14;100.00
20003;BME280;10162;41.600;23.806;2023-06-22T00:35:26;95545.75;;;17.10;100.00
20003;BME280;10162;41.600;23.806;2023-06-22T00:37:59;95545.53;;;17.11;100.00
20003;BME280;10162;41.600;23.806;2023-06-22T00:40:32;95526.84;;;16.65;100.00
20003;BME280;10162;41.600;23.806;2023-06-22T00:46:52;95554.25;;;17.12;100.00
20003;BME280;10162;41.600;23.806;2023-06-22T00:49:20;95556.38;;;16.91;100.00
20003;BME280;10162;41.600;23.806;2023-06-22T00:55:44;95561.78;;;16.97;100.00
20003;BME280;10162;41.600;23.806;2023-06-22T00:58:13;95536.38;;;16.66;100.00
20003;BME280;10162;41.600;23.806;2023-06-22T01:00:40;95531.53;;;16.44;100.00
20003;BME280;10162;41.600;23.806;2023-06-22T01:03:07;95552.81;;;16.68;100.00
20003;BME280;10162;41.600;23.806;2023-06-22T01:05:36;95542.13;;;16.63;100.00
20003;BME280;10162;41.600;23.806;2023-06-22T01:08:39;95559.84;;;17.04;100.00
20003;BME280;10162;41.600;23.806;2023-06-22T01:11:12;95544.00;;;17.04;100.00
20003;BME280;10162;41.600;23.806;2023-06-22T01:14:40;95553.16;;;16.89;100.00
20003;BME280;10162;41.600;23.806;2023-06-22T01:16:59;95573.00;;;16.62;100.00
20003;BME280;10162;41.600;23.806;2023-06-22T01:19:48;95570.19;;;16.57;100.00
20003;BME280;10162;41.600;23.806;2023-06-22T01:26:35;95561.59;;;16.43;100.00
20003;BME280;10162;41.600;23.806;2023-06-22T01:29:04;95556.59;;;16.53;100.00
20003;BME280;10162;41.600;23.806;2023-06-22T01:35:25;95553.38;;;16.51;100.00
20003;BME280;10162;41.600;23.806;2023-06-22T01:37:52;95532.88;;;16.17;100.00
20003;BME280;10162;41.600;23.806;2023-06-22T01:40:19;95548.91;;;16.16;100.00
20003;BME280;10162;41.600;23.806;2023-06-22T01:46:40;95568.03;;;16.11;100.00
20003;BME280;10162;41.600;23.806;2023-06-22T01:49:07;95567.06;;;16.24;100.00
20003;BME280;10162;41.600;23.806;2023-06-22T01:55:29;95580.41;;;16.10;100.00
20003;BME280;10162;41.600;23.806;2023-06-22T01:57:56;95554.66;;;15.88;100.00
20003;BME280;10162;41.600;23.806;2023-06-22T02:00:22;95561.25;;;15.97;100.00
20003;BME280;10162;41.600;23.806;2023-06-22T02:06:46;95566.94;;;16.55;100.00
20003;BME280;10162;41.600;23.806;2023-06-22T02:09:17;95560.19;;;16.23;100.00
20003;BME280;10162;41.600;23.806;2023-06-22T02:15:39;95572.31;;;15.87;100.00
20003;BME280;10162;41.600;23.806;2023-06-22T02:18:05;95567.28;;;16.04;100.00
20003;BME280;10162;41.600;23.806;2023-06-22T02:20:31;95589.13;;;16.11;100.00
20003;BME280;10162;41.600;23.806;2023-06-22T02:26:51;95572.50;;;15.86;100.00
20003;BME280;10162;41.600;23.806;2023-06-22T02:29:17;95587.44;;;16.17;100.00
20003;BME280;10162;41.600;23.806;2023-06-22T02:35:37;95583.09;;;16.04;100.00
20003;BME280;10162;41.600;23.806;2023-06-22T02:38:04;95584.22;;;15.90;100.00
20003;BME280;10162;41.600;23.806;2023-06-22T02:40:30;95579.06;;;15.52;100.00
20003;BME280;10162;41.600;23.806;2023-06-22T02:46:51;95574.53;;;15.84;100.00
20003;BME280;10162;41.600;23.806;2023-06-22T02:49:18;95567.94;;;15.99;100.00
20003;BME280;10162;41.600;23.806;2023-06-22T02:55:37;95602.38;;;15.48;100.00
20003;BME280;10162;41.600;23.806;2023-06-22T02:58:05;95610.06;;;15.50;100.00
20003;BME280;10162;41.600;23.806;2023-06-22T03:00:33;95609.06;;;15.82;100.00
20003;BME280;10162;41.600;23.806;2023-06-22T03:06:53;95600.53;;;15.55;100.00
20003;BME280;10162;41.600;23.806;2023-06-22T03:09:20;95628.75;;;15.80;100.00
20003;BME280;10162;41.600;23.806;2023-06-22T03:15:39;95613.44;;;15.63;100.00
20003;BME280;10162;41.600;23.806;2023-06-22T03:18:06;95622.50;;;15.74;100.00
20003;BME280;10162;41.600;23.806;2023-06-22T03:20:31;95586.56;;;15.80;100.00
20003;BME280;10162;41.600;23.806;2023-06-22T03:26:54;95596.34;;;15.97;100.00
20003;BME280;10162;41.600;23.806;2023-06-22T03:29:22;95600.97;;;16.02;100.00
20003;BME280;10162;41.600;23.806;2023-06-22T03:35:43;95604.97;;;15.86;100.00
20003;BME280;10162;41.600;23.806;2023-06-22T03:38:10;95593.97;;;15.89;100.00
20003;BME280;10162;41.600;23.806;2023-06-22T03:40:36;95620.13;;;16.16;100.00
20003;BME280;10162;41.600;23.806;2023-06-22T03:46:57;95614.66;;;15.92;100.00
20003;BME280;10162;41.600;23.806;2023-06-22T03:49:23;95602.31;;;16.11;100.00
20003;BME280;10162;41.600;23.806;2023-06-22T03:55:52;95636.91;;;16.64;100.00
20003;BME280;10162;41.600;23.806;2023-06-22T03:58:20;95619.59;;;17.05;100.00
20003;BME280;10162;41.600;23.806;2023-06-22T04:00:47;95625.19;;;17.26;100.00
20003;BME280;10162;41.600;23.806;2023-06-22T04:03:14;95628.56;;;17.33;100.00
20003;BME280;10162;41.600;23.806;2023-06-22T04:05:40;95635.59;;;17.69;100.00
20003;BME280;10162;41.600;23.806;2023-06-22T04:08:15;95619.53;;;17.71;100.00
20003;BME280;10162;41.600;23.806;2023-06-22T04:10:41;95633.09;;;17.74;100.00
20003;BME280;10162;41.600;23.806;2023-06-22T04:13:07;95628.47;;;17.70;100.00
20003;BME280;10162;41.600;23.806;2023-06-22T04:15:33;95631.97;;;17.94;100.00
20003;BME280;10162;41.600;23.806;2023-06-22T04:17:59;95637.63;;;18.21;100.00
20003;BME280;10162;41.600;23.806;2023-06-22T04:20:24;95626.25;;;18.20;100.00
20003;BME280;10162;41.600;23.806;2023-06-22T04:26:47;95633.03;;;18.39;100.00
20003;BME280;10162;41.600;23.806;2023-06-22T04:29:14;95633.03;;;18.51;100.00
20003;BME280;10162;41.600;23.806;2023-06-22T04:35:34;95646.84;;;18.53;100.00
20003;BME280;10162;41.600;23.806;2023-06-22T04:38:01;95654.22;;;18.39;100.00
20003;BME280;10162;41.600;23.806;2023-06-22T04:40:26;95638.44;;;18.21;100.00
20003;BME280;10162;41.600;23.806;2023-06-22T04:46:46;95647.66;;;18.53;100.00
20003;BME280;10162;41.600;23.806;2023-06-22T04:49:20;95657.69;;;19.15;100.00
20003;BME280;10162;41.600;23.806;2023-06-22T04:55:40;95668.06;;;19.16;100.00
20003;BME280;10162;41.600;23.806;2023-06-22T04:58:08;95664.25;;;19.64;100.00
20003;BME280;10162;41.600;23.806;2023-06-22T05:00:33;95646.38;;;19.59;100.00
20003;BME280;10162;41.600;23.806;2023-06-22T05:03:05;95642.47;;;19.78;100.00
20003;BME280;10162;41.600;23.806;2023-06-22T05:05:36;95654.16;;;20.11;100.00
20003;BME280;10162;41.600;23.806;2023-06-22T05:08:02;95677.50;;;20.26;100.00
20003;BME280;10162;41.600;23.806;2023-06-22T05:10:29;95655.53;;;19.97;100.00
20003;BME280;10162;41.600;23.806;2023-06-22T05:16:48;95642.41;;;19.90;100.00
20003;BME280;10162;41.600;23.806;2023-06-22T05:19:15;95648.97;;;20.33;100.00
20003;BME280;10162;41.600;23.806;2023-06-22T05:25:35;95659.63;;;20.71;100.00
20003;BME280;10162;41.600;23.806;2023-06-22T05:28:01;95653.78;;;20.52;100.00
20003;BME280;10162;41.600;23.806;2023-06-22T05:30:37;95668.94;;;20.74;100.00
20003;BME280;10162;41.600;23.806;2023-06-22T05:36:57;95635.44;;;21.33;100.00
20003;BME280;10162;41.600;23.806;2023-06-22T05:39:26;95636.78;;;21.14;100.00
20003;BME280;10162;41.600;23.806;2023-06-22T05:45:46;95656.34;;;21.46;100.00
20003;BME280;10162;41.600;23.806;2023-06-22T05:48:13;95651.38;;;21.55;100.00
20003;BME280;10162;41.600;23.806;2023-06-22T05:50:39;95643.94;;;21.57;100.00
20003;BME280;10162;41.600;23.806;2023-06-22T05:53:06;95638.91;;;21.60;100.00
20003;BME280;10162;41.600;23.806;2023-06-22T05:55:32;95645.66;;;21.68;100.00
20003;BME280;10162;41.600;23.806;2023-06-22T05:57:58;95650.16;;;21.94;100.00
20003;BME280;10162;41.600;23.806;2023-06-22T06:00:24;95662.31;;;22.12;100.00
20003;BME280;10162;41.600;23.806;2023-06-22T06:06:45;95632.72;;;21.81;100.00
20003;BME280;10162;41.600;23.806;2023-06-22T06:09:13;95649.88;;;22.22;100.00
20003;BME280;10162;41.600;23.806;2023-06-22T06:15:34;95627.59;;;22.34;100.00
20003;BME280;10162;41.600;23.806;2023-06-22T06:18:00;95640.88;;;22.65;100.00
20003;BME280;10162;41.600;23.806;2023-06-22T06:20:28;95641.47;;;22.36;100.00
20003;BME280;10162;41.600;23.806;2023-06-22T06:26:49;95622.75;;;22.67;97.97
20003;BME280;10162;41.600;23.806;2023-06-22T06:29:15;95620.34;;;22.66;97.44
20003;BME280;10162;41.600;23.806;2023-06-22T06:44:24;95650.53;;;23.24;87.59
20003;BME280;10162;41.600;23.806;2023-06-22T06:50:43;95638.41;;;23.63;82.32
20003;BME280;10162;41.600;23.806;2023-06-22T06:53:10;95634.69;;;23.79;80.84
20003;BME280;10162;41.600;23.806;2023-06-22T06:59:30;95636.81;;;23.87;79.17
20003;BME280;10162;41.600;23.806;2023-06-22T07:01:56;95623.16;;;23.54;83.08
20003;BME280;10162;41.600;23.806;2023-06-22T07:04:21;95640.59;;;24.07;81.71
20003;BME280;10162;41.600;23.806;2023-06-22T07:10:41;95622.94;;;24.11;79.52
20003;BME280;10162;41.600;23.806;2023-06-22T07:13:07;95626.72;;;24.35;76.92
20003;BME280;10162;41.600;23.806;2023-06-22T07:19:27;95634.44;;;24.52;79.23
20003;BME280;10162;41.600;23.806;2023-06-22T07:21:53;95614.59;;;24.93;77.57
20003;BME280;10162;41.600;23.806;2023-06-22T07:24:20;95624.75;;;24.86;76.05
20003;BME280;10162;41.600;23.806;2023-06-22T07:30:40;95638.16;;;24.76;76.24
20003;BME280;10162;41.600;23.806;2023-06-22T07:33:07;95610.63;;;24.76;74.89
20003;BME280;10162;41.600;23.806;2023-06-22T07:39:28;95625.19;;;25.29;71.26
20003;BME280;10162;41.600;23.806;2023-06-22T07:41:54;95626.63;;;24.91;72.76
20003;BME280;10162;41.600;23.806;2023-06-22T07:44:19;95626.94;;;25.48;72.35
20003;BME280;10162;41.600;23.806;2023-06-22T07:51:05;95618.06;;;26.36;66.04
20003;BME280;10162;41.600;23.806;2023-06-22T07:53:31;95627.16;;;26.40;65.46
20003;BME280;10162;41.600;23.806;2023-06-22T07:59:51;95602.25;;;26.63;60.21
20003;BME280;10162;41.600;23.806;2023-06-22T08:02:18;95597.94;;;26.91;62.51
20003;BME280;10162;41.600;23.806;2023-06-22T08:08:38;95599.84;;;26.91;53.02
20003;BME280;10162;41.600;23.806;2023-06-22T08:11:04;95577.09;;;26.59;57.01
20003;BME280;10162;41.600;23.806;2023-06-22T08:13:31;95591.66;;;27.01;56.92
20003;BME280;10162;41.600;23.806;2023-06-22T08:19:51;95585.38;;;26.87;55.49
20003;BME280;10162;41.600;23.806;2023-06-22T08:22:17;95591.78;;;26.62;57.31
20003;BME280;10162;41.600;23.806;2023-06-22T08:28:38;95564.66;;;26.92;56.70
20003;BME280;10162;41.600;23.806;2023-06-22T08:31:04;95586.13;;;27.35;55.24
20003;BME280;10162;41.600;23.806;2023-06-22T08:33:30;95553.06;;;26.97;55.49
20003;BME280;10162;41.600;23.806;2023-06-22T08:39:52;95559.66;;;27.28;54.83
20003;BME280;10162;41.600;23.806;2023-06-22T08:42:19;95563.16;;;27.85;52.61
20003;BME280;10162;41.600;23.806;2023-06-22T08:44:44;95560.50;;;27.99;52.45
20003;BME280;10162;41.600;23.806;2023-06-22T08:47:10;95574.28;;;28.11;50.60
20003;BME280;10162;41.600;23.806;2023-06-22T08:49:36;95569.56;;;28.21;48.03
20003;BME280;10162;41.600;23.806;2023-06-22T08:52:03;95553.25;;;28.31;47.11
20003;BME280;10162;41.600;23.806;2023-06-22T08:54:28;95560.22;;;28.00;46.93
20003;BME280;10162;41.600;23.806;2023-06-22T09:00:48;95561.34;;;28.45;47.26
20003;BME280;10162;41.600;23.806;2023-06-22T09:03:16;95571.63;;;28.57;45.67
20003;BME280;10162;41.600;23.806;2023-06-22T09:09:35;95576.44;;;29.01;44.69
20003;BME280;10162;41.600;23.806;2023-06-22T09:12:01;95564.38;;;29.26;44.21
20003;BME280;10162;41.600;23.806;2023-06-22T09:14:26;95563.47;;;29.16;45.92
20003;BME280;10162;41.600;23.806;2023-06-22T09:19:46;95547.81;;;29.05;43.59
20003;BME280;10162;41.600;23.806;2023-06-22T09:22:12;95553.91;;;29.38;43.99
20003;BME280;10162;41.600;23.806;2023-06-22T09:24:38;95554.50;;;28.94;44.55
20003;BME280;10162;41.600;23.806;2023-06-22T09:27:04;95560.78;;;29.44;45.91
20003;BME280;10162;41.600;23.806;2023-06-22T09:29:30;95543.00;;;29.43;44.24
20003;BME280;10162;41.600;23.806;2023-06-22T09:31:59;95540.03;;;29.44;46.94
20003;BME280;10162;41.600;23.806;2023-06-22T09:34:27;95521.84;;;29.23;45.12
20003;BME280;10162;41.600;23.806;2023-06-22T09:40:15;95517.81;;;29.83;44.17
20003;BME280;10162;41.600;23.806;2023-06-22T09:42:42;95538.38;;;29.57;43.37
20003;BME280;10162;41.600;23.806;2023-06-22T09:45:22;95548.84;;;29.94;44.83
20003;BME280;10162;41.600;23.806;2023-06-22T09:47:48;95544.00;;;30.05;43.10
20003;BME280;10162;41.600;23.806;2023-06-22T09:50:14;95534.66;;;30.11;43.65
20003;BME280;10162;41.600;23.806;2023-06-22T09:52:39;95522.31;;;30.19;41.80
20003;BME280;10162;41.600;23.806;2023-06-22T09:58:12;95526.72;;;30.68;39.05
20003;BME280;10162;41.600;23.806;2023-06-22T10:00:40;95519.34;;;30.99;38.27
20003;BME280;10162;41.600;23.806;2023-06-22T10:03:07;95524.81;;;30.68;39.62
20003;BME280;10162;41.600;23.806;2023-06-22T10:09:28;95524.53;;;31.35;37.77
20003;BME280;10162;41.600;23.806;2023-06-22T10:11:56;95519.75;;;31.24;36.91
20003;BME280;10162;41.600;23.806;2023-06-22T10:14:21;95513.25;;;31.25;37.86
20003;BME280;10162;41.600;23.806;2023-06-22T10:20:41;95483.03;;;30.57;38.13
20003;BME280;10162;41.600;23.806;2023-06-22T10:23:07;95491.22;;;31.00;39.19
20003;BME280;10162;41.600;23.806;2023-06-22T10:28:50;95488.44;;;31.57;37.75
20003;BME280;10162;41.600;23.806;2023-06-22T10:31:15;95467.22;;;30.90;38.65
20003;BME280;10162;41.600;23.806;2023-06-22T10:33:42;95480.06;;;31.58;37.11
20003;BME280;10162;41.600;23.806;2023-06-22T10:39:17;95470.66;;;31.65;35.38
20003;BME280;10162;41.600;23.806;2023-06-22T10:41:43;95470.25;;;30.89;37.90
20003;BME280;10162;41.600;23.806;2023-06-22T10:44:09;95456.88;;;30.75;37.84
20003;BME280;10162;41.600;23.806;2023-06-22T10:50:29;95458.97;;;32.16;36.23
20003;BME280;10162;41.600;23.806;2023-06-22T10:52:55;95464.53;;;32.11;36.21
20003;BME280;10162;41.600;23.806;2023-06-22T10:59:14;95455.63;;;32.10;34.81
20003;BME280;10162;41.600;23.806;2023-06-22T11:01:41;95465.38;;;31.85;35.82
20003;BME280;10162;41.600;23.806;2023-06-22T11:04:06;95451.38;;;32.00;34.74
20003;BME280;10162;41.600;23.806;2023-06-22T11:09:48;95445.69;;;31.33;35.47
20003;BME280;10162;41.600;23.806;2023-06-22T11:12:14;95438.06;;;31.52;36.64
20003;BME280;10162;41.600;23.806;2023-06-22T11:14:40;95444.00;;;32.10;36.33
20003;BME280;10162;41.600;23.806;2023-06-22T11:17:05;95426.94;;;31.71;34.71
20003;BME280;10162;41.600;23.806;2023-06-22T11:19:31;95433.75;;;31.69;35.91
20003;BME280;10162;41.600;23.806;2023-06-22T11:21:57;95439.81;;;31.14;35.73
20003;BME280;10162;41.600;23.806;2023-06-22T11:24:23;95426.72;;;30.73;35.85
20003;BME280;10162;41.600;23.806;2023-06-22T11:29:58;95450.53;;;32.17;31.80
20003;BME280;10162;41.600;23.806;2023-06-22T11:32:24;95446.34;;;32.75;33.31
20003;BME280;10162;41.600;23.806;2023-06-22T11:34:55;95458.19;;;32.91;34.42
20003;BME280;10162;41.600;23.806;2023-06-22T11:37:21;95428.91;;;32.17;33.76
20003;BME280;10162;41.600;23.806;2023-06-22T11:39:46;95422.16;;;31.34;34.93
20003;BME280;10162;41.600;23.806;2023-06-22T11:42:13;95449.50;;;32.39;33.40
20003;BME280;10162;41.600;23.806;2023-06-22T11:44:39;95446.50;;;32.70;31.88
20003;BME280;10162;41.600;23.806;2023-06-22T11:47:05;95426.59;;;31.81;31.44
20003;BME280;10162;41.600;23.806;2023-06-22T11:49:31;95438.34;;;32.99;33.96
20003;BME280;10162;41.600;23.806;2023-06-22T11:51:58;95428.25;;;32.12;36.17
20003;BME280;10162;41.600;23.806;2023-06-22T11:54:23;95428.47;;;33.24;35.94
20003;BME280;10162;41.600;23.806;2023-06-22T12:00:44;95437.31;;;33.54;31.57
20003;BME280;10162;41.600;23.806;2023-06-22T12:03:11;95441.03;;;33.70;30.02
20003;BME280;10162;41.600;23.806;2023-06-22T12:06:04;95442.53;;;32.97;31.02
20003;BME280;10162;41.600;23.806;2023-06-22T12:08:30;95431.38;;;31.67;34.58
20003;BME280;10162;41.600;23.806;2023-06-22T12:10:55;95433.84;;;32.07;34.43
20003;BME280;10162;41.600;23.806;2023-06-22T12:13:22;95406.72;;;32.32;34.42
20003;BME280;10162;41.600;23.806;2023-06-22T12:19:34;95393.53;;;33.31;33.54
20003;BME280;10162;41.600;23.806;2023-06-22T12:22:00;95423.09;;;34.23;33.18
20003;BME280;10162;41.600;23.806;2023-06-22T12:24:26;95397.19;;;33.06;34.00
20003;BME280;10162;41.600;23.806;2023-06-22T12:27:11;95413.63;;;33.63;34.14
20003;BME280;10162;41.600;23.806;2023-06-22T12:29:38;95406.19;;;34.05;33.53
20003;BME280;10162;41.600;23.806;2023-06-22T12:32:04;95394.97;;;33.29;33.95
20003;BME280;10162;41.600;23.806;2023-06-22T12:34:31;95400.03;;;33.09;33.43
20003;BME280;10162;41.600;23.806;2023-06-22T12:40:50;95395.28;;;31.72;36.62
20003;BME280;10162;41.600;23.806;2023-06-22T12:43:16;95399.56;;;32.57;34.59
20003;BME280;10162;41.600;23.806;2023-06-22T12:49:36;95400.03;;;33.72;34.34
20003;BME280;10162;41.600;23.806;2023-06-22T12:52:08;95386.75;;;33.16;34.58
20003;BME280;10162;41.600;23.806;2023-06-22T12:54:33;95389.28;;;34.32;31.71
20003;BME280;10162;41.600;23.806;2023-06-22T13:00:21;95387.13;;;34.50;32.12
20003;BME280;10162;41.600;23.806;2023-06-22T13:02:46;95372.72;;;34.86;31.83
20003;BME280;10162;41.600;23.806;2023-06-22T13:09:09;95390.63;;;34.63;32.44
20003;BME280;10162;41.600;23.806;2023-06-22T13:11:35;95370.84;;;34.50;32.28
20003;BME280;10162;41.600;23.806;2023-06-22T13:14:01;95389.50;;;35.16;30.85
20003;BME280;10162;41.600;23.806;2023-06-22T13:16:42;95393.31;;;36.26;30.93
20003;BME280;10162;41.600;23.806;2023-06-22T13:19:08;95385.31;;;36.65;30.23
20003;BME280;10162;41.600;23.806;2023-06-22T13:21:33;95368.28;;;36.05;29.76
20003;BME280;10162;41.600;23.806;2023-06-22T13:23:59;95371.69;;;35.86;30.29
20003;BME280;10162;41.600;23.806;2023-06-22T13:29:47;95362.91;;;35.09;31.40
20003;BME280;10162;41.600;23.806;2023-06-22T13:32:13;95363.53;;;35.58;30.10
20003;BME280;10162;41.600;23.806;2023-06-22T13:34:39;95332.69;;;34.47;31.82
20003;BME280;10162;41.600;23.806;2023-06-22T13:37:05;95346.97;;;35.20;32.56
20003;BME280;10162;41.600;23.806;2023-06-22T13:39:32;95355.13;;;35.63;31.26
20003;BME280;10162;41.600;23.806;2023-06-22T13:41:58;95375.19;;;36.02;31.07
20003;BME280;10162;41.600;23.806;2023-06-22T13:44:24;95353.19;;;36.23;31.26
20003;BME280;10162;41.600;23.806;2023-06-22T13:47:02;95344.72;;;36.13;31.58
20003;BME280;10162;41.600;23.806;2023-06-22T13:49:28;95359.16;;;36.44;30.60
20003;BME280;10162;41.600;23.806;2023-06-22T13:51:54;95357.84;;;35.20;32.04
20003;BME280;10162;41.600;23.806;2023-06-22T13:54:21;95360.78;;;35.43;31.60
20003;BME280;10162;41.600;23.806;2023-06-22T13:57:04;95359.09;;;35.38;31.88
20003;BME280;10162;41.600;23.806;2023-06-22T13:59:32;95350.25;;;34.25;33.71
20003;BME280;10162;41.600;23.806;2023-06-22T14:01:57;95339.38;;;33.88;35.20
20003;BME280;10162;41.600;23.806;2023-06-22T14:04:24;95344.69;;;33.52;35.95
20003;BME280;10162;41.600;23.806;2023-06-22T14:07:04;95357.34;;;34.66;33.60
20003;BME280;10162;41.600;23.806;2023-06-22T14:09:30;95357.47;;;34.09;34.28
20003;BME280;10162;41.600;23.806;2023-06-22T14:11:56;95368.97;;;34.18;34.11
20003;BME280;10162;41.600;23.806;2023-06-22T14:14:22;95365.47;;;33.27;33.72
20003;BME280;10162;41.600;23.806;2023-06-22T14:17:08;95364.41;;;32.99;34.05
20003;BME280;10162;41.600;23.806;2023-06-22T14:19:36;95339.78;;;32.92;35.04
20003;BME280;10162;41.600;23.806;2023-06-22T14:22:02;95330.59;;;32.84;36.97
20003;BME280;10162;41.600;23.806;2023-06-22T14:24:28;95355.22;;;32.12;36.83
20003;BME280;10162;41.600;23.806;2023-06-22T14:27:11;95336.44;;;31.77;37.15
20003;BME280;10162;41.600;23.806;2023-06-22T14:29:38;95351.69;;;31.56;37.44
20003;BME280;10162;41.600;23.806;2023-06-22T14:32:04;95347.28;;;30.65;41.22
20003;BME280;10162;41.600;23.806;2023-06-22T14:34:32;95341.59;;;30.02;44.43
20003;BME280;10162;41.600;23.806;2023-06-22T14:37:06;95361.91;;;29.77;45.87
20003;BME280;10162;41.600;23.806;2023-06-22T14:39:34;95354.09;;;29.67;46.95
20003;BME280;10162;41.600;23.806;2023-06-22T14:41:59;95354.84;;;29.58;48.19
20003;BME280;10162;41.600;23.806;2023-06-22T14:44:27;95339.25;;;29.47;49.48
20003;BME280;10162;41.600;23.806;2023-06-22T14:47:34;95373.69;;;28.92;54.15
20003;BME280;10162;41.600;23.806;2023-06-22T14:50:02;95355.31;;;28.58;53.83
20003;BME280;10162;41.600;23.806;2023-06-22T14:52:29;95356.13;;;28.45;54.92
20003;BME280;10162;41.600;23.806;2023-06-22T14:55:13;95366.19;;;28.53;54.23
20003;BME280;10162;41.600;23.806;2023-06-22T14:57:40;95354.34;;;28.26;54.47
20003;BME280;10162;41.600;23.806;2023-06-22T15:00:06;95351.66;;;28.40;53.96
20003;BME280;10162;41.600;23.806;2023-06-22T15:02:32;95361.28;;;28.55;54.19
20003;BME280;10162;41.600;23.806;2023-06-22T15:05:00;95362.28;;;28.04;56.33
20003;BME280;10162;41.600;23.806;2023-06-22T15:07:26;95368.88;;;27.98;55.37
20003;BME280;10162;41.600;23.806;2023-06-22T15:09:51;95365.28;;;27.89;56.08
20003;BME280;10162;41.600;23.806;2023-06-22T15:12:17;95350.34;;;27.83;56.44
20003;BME280;10162;41.600;23.806;2023-06-22T15:15:20;95367.38;;;27.78;57.67
20003;BME280;10162;41.600;23.806;2023-06-22T15:17:47;95365.78;;;27.91;57.31
20003;BME280;10162;41.600;23.806;2023-06-22T15:20:13;95366.78;;;28.09;57.05
20003;BME280;10162;41.600;23.806;2023-06-22T15:22:40;95374.25;;;28.12;57.71
20003;BME280;10162;41.600;23.806;2023-06-22T15:28:14;95364.19;;;28.31;58.42
20003;BME280;10162;41.600;23.806;2023-06-22T15:30:39;95364.09;;;27.95;64.25
20003;BME280;10162;41.600;23.806;2023-06-22T15:33:07;95368.16;;;27.92;62.83
20003;BME280;10162;41.600;23.806;2023-06-22T15:35:32;95373.53;;;27.92;62.39
20003;BME280;10162;41.600;23.806;2023-06-22T15:37:58;95382.69;;;27.91;63.31
20003;BME280;10162;41.600;23.806;2023-06-22T15:40:24;95402.97;;;27.57;64.46
20003;BME280;10162;41.600;23.806;2023-06-22T15:42:50;95424.50;;;27.51;62.60
20003;BME280;10162;41.600;23.806;2023-06-22T15:49:27;95412.06;;;27.88;61.78
20003;BME280;10162;41.600;23.806;2023-06-22T15:51:54;95409.94;;;27.71;64.46
20003;BME280;10162;41.600;23.806;2023-06-22T15:54:20;95436.59;;;28.14;63.83
20003;BME280;10162;41.600;23.806;2023-06-22T15:59:40;95419.38;;;27.69;65.54
20003;BME280;10162;41.600;23.806;2023-06-22T16:02:07;95418.91;;;27.67;65.34
20003;BME280;10162;41.600;23.806;2023-06-22T16:04:35;95422.19;;;27.77;64.44
20003;BME280;10162;41.600;23.806;2023-06-22T16:07:02;95434.63;;;27.73;66.92
20003;BME280;10162;41.600;23.806;2023-06-22T16:09:28;95420.44;;;27.35;67.08
20003;BME280;10162;41.600;23.806;2023-06-22T16:11:56;95418.09;;;27.47;64.20
20003;BME280;10162;41.600;23.806;2023-06-22T16:14:24;95434.47;;;27.83;60.42
20003;BME280;10162;41.600;23.806;2023-06-22T16:16:59;95432.00;;;28.01;60.49
20003;BME280;10162;41.600;23.806;2023-06-22T16:19:25;95416.03;;;27.77;62.54
20003;BME280;10162;41.600;23.806;2023-06-22T16:21:51;95422.28;;;27.21;64.19
20003;BME280;10162;41.600;23.806;2023-06-22T16:24:17;95432.53;;;27.19;62.68
20003;BME280;10162;41.600;23.806;2023-06-22T16:27:04;95421.88;;;26.71;67.25
20003;BME280;10162;41.600;23.806;2023-06-22T16:29:30;95416.09;;;26.88;66.11
20003;BME280;10162;41.600;23.806;2023-06-22T16:31:56;95436.66;;;26.93;70.80
20003;BME280;10162;41.600;23.806;2023-06-22T16:34:21;95422.06;;;26.80;68.48
20003;BME280;10162;41.600;23.806;2023-06-22T16:36:47;95401.38;;;26.62;72.27
20003;BME280;10162;41.600;23.806;2023-06-22T16:39:13;95413.84;;;26.71;71.72
20003;BME280;10162;41.600;23.806;2023-06-22T16:41:39;95417.38;;;26.91;69.15
20003;BME280;10162;41.600;23.806;2023-06-22T16:44:06;95424.16;;;26.64;67.91
20003;BME280;10162;41.600;23.806;2023-06-22T16:46:51;95445.53;;;26.69;72.99
20003;BME280;10162;41.600;23.806;2023-06-22T16:49:17;95431.75;;;26.33;84.62
20003;BME280;10162;41.600;23.806;2023-06-22T16:51:43;95423.84;;;26.23;79.41
20003;BME280;10162;41.600;23.806;2023-06-22T16:54:10;95437.72;;;26.30;74.20
20003;BME280;10162;41.600;23.806;2023-06-22T16:57:02;95451.66;;;26.51;79.69
20003;BME280;10162;41.600;23.806;2023-06-22T16:59:29;95437.97;;;25.76;82.89
20003;BME280;10162;41.600;23.806;2023-06-22T17:01:56;95451.94;;;26.02;83.70
20003;BME280;10162;41.600;23.806;2023-06-22T17:04:24;95428.00;;;25.82;82.65
20003;BME280;10162;41.600;23.806;2023-06-22T17:07:01;95445.50;;;25.35;91.47
20003;BME280;10162;41.600;23.806;2023-06-22T17:09:29;95447.75;;;24.74;91.44
20003;BME280;10162;41.600;23.806;2023-06-22T17:11:59;95447.97;;;24.13;100.00
20003;BME280;10162;41.600;23.806;2023-06-22T17:14:26;95457.03;;;24.27;100.00
20003;BME280;10162;41.600;23.806;2023-06-22T17:17:18;95469.09;;;24.94;80.71
20003;BME280;10162;41.600;23.806;2023-06-22T17:19:45;95462.56;;;24.51;85.72
20003;BME280;10162;41.600;23.806;2023-06-22T17:22:12;95467.19;;;25.00;83.79